Aérodrome :
LOGIN :

S'inscrire | Disclaimer

   EN    FR    IT 

 










Légende :    VFR   VFR Marginal   IFR   IFR Intensif   IFR Très Intensif
Visi : 
Plafond : 
>= 8 km
>= 3000ft
5 à 8 km
1000 à 3000 ft
1500m à 5 km
500 à 1000 ft
800 à 1500m
200 à 500 ft
< 800m
< 200 ft
Symboles :   Orages  Brouillard  Fortes neiges  Fortes précipitations  Vent > 20 kt
SIGMETs :   Divers  Orages  Givrage  Turbulence  Onde Orograph.  Cendres Volcan.






- Altitude de l'aérodrome : 17 ft
- Code IATA : MPL


LFMT - Montpellier Méditerranée

DERNIER METAR :
  • 281330Z AUTO 28018KT 9999 SCT049 BKN058 OVC068 15/06 Q1015 TEMPO 28015G25KT

METARs EXPIRÉS :
  • 281300Z AUTO 28022KT CAVOK 15/05 Q1015 TEMPO 28015G25KT
  • 281230Z AUTO 27020KT 9999 FEW043 SCT056 15/06 Q1015 TEMPO 28015G25KT
  • 281200Z AUTO 26016KT 9999 BKN046 BKN052 14/08 Q1015 TEMPO 28015G25KT
  • 281130Z AUTO 25014KT 9999 FEW043 13/09 Q1015 TEMPO 28015G25KT
  • 281100Z AUTO 24016KT CAVOK 12/09 Q1015 TEMPO 28015G25KT

TAF TAF LFMT
Valide du 28 à 09h jusqu'au 29 à 09h UTC


280800Z 2809/2909 25010KT CAVOK
TEMPO 2811/2816 28015G25KT
ATIS : +33 4 67 13 11 70



MET'MAP, la Météo Aéronautique d'un coup d'oeil ! - Copyright ORBIFLY Décembre 2007 - Disclaimer

ORBIFLY MET'MAP TEAM :

Programmation & Développement : Alexandra Zaïnal
Sur une idée originale de : Baudouin d'Aumeries
Assistance à la programmation : Marc-Olivier Méhu
Soutien technique & logistique : Manuel Goepfert

Contact : metmap@orbifly.com




SOURCES & CREDITS :

   NOAA